Time;durP1;ratioP1;P1;durP2;ratioP2;P2;SDS_P1;SDS_P2;PMS_P1;PMS_P2;Temp;Humidity;BMP_temperature;BMP_pressure;BME280_temperature;BME280_humidity;BME280_pressure;Samples;Min_cycle;Max_cycle;Signal;HPM_P1;HPM_P2
2022/12/05 00:04:57;;;;;;;29.25;13.30;;;;;;;5.17;74.50;100221.47;10263224;28;20084;-58
2022/12/05 00:09:58;;;;;;;33.13;13.55;;;;;;;5.13;75.12;100228.06;10290500;28;20047;-58
2022/12/05 00:15:00;;;;;;;28.67;13.55;;;;;;;5.03;75.46;100219.25;10278825;28;20341;-58
2022/12/05 00:20:01;;;;;;;28.50;14.05;;;;;;;4.99;75.36;100221.34;10259084;28;20055;-60
2022/12/05 00:25:05;;;;;;;31.92;14.18;;;;;;;4.99;75.60;100228.53;10278719;28;20051;-59
2022/12/05 00:30:07;;;;;;;31.90;14.70;;;;;;;4.94;75.34;100231.63;10296871;28;20109;-59
2022/12/05 00:35:08;;;;;;;30.90;13.73;;;;;;;4.99;75.24;100236.50;10292865;28;20086;-59
2022/12/05 00:40:10;;;;;;;31.88;12.82;;;;;;;4.98;75.58;100246.34;10273974;28;20091;-60
2022/12/05 00:45:11;;;;;;;29.42;11.80;;;;;;;4.91;75.58;100247.88;10292148;28;20054;-60
2022/12/05 00:50:12;;;;;;;30.75;13.35;;;;;;;4.97;75.77;100247.31;10291591;28;20081;-61
2022/12/05 00:55:14;;;;;;;30.10;11.77;;;;;;;5.03;75.80;100243.22;10287138;28;20059;-61
2022/12/05 01:00:16;;;;;;;26.80;12.25;;;;;;;5.00;75.67;100255.03;10293105;28;20066;-59
2022/12/05 01:05:17;;;;;;;30.48;12.80;;;;;;;5.00;75.92;100265.69;10272491;28;20464;-59
2022/12/05 01:10:19;;;;;;;25.30;11.65;;;;;;;5.04;75.83;100268.91;10293615;28;20065;-58
2022/12/05 01:15:20;;;;;;;29.33;13.05;;;;;;;5.01;75.71;100280.66;10293263;28;20055;-62
2022/12/05 01:20:21;;;;;;;25.17;11.57;;;;;;;5.05;76.04;100282.06;10294251;28;20059;-60
2022/12/05 01:25:23;;;;;;;25.35;12.05;;;;;;;4.94;75.92;100283.06;10298661;28;20061;-59
2022/12/05 01:30:24;;;;;;;23.00;10.77;;;;;;;5.01;76.40;100283.31;10300632;28;20047;-62
2022/12/05 01:35:26;;;;;;;30.80;12.98;;;;;;;5.12;75.81;100287.69;10298931;28;20083;-59
2022/12/05 01:40:28;;;;;;;25.38;11.95;;;;;;;5.20;76.00;100285.13;10299087;28;20058;-58
2022/12/05 01:45:37;;;;;;;27.10;11.60;;;;;;;5.24;75.77;100286.53;10296182;28;20050;-59
2022/12/05 01:50:39;;;;;;;27.45;11.27;;;;;;;5.26;76.07;100287.22;10295441;28;20077;-58
2022/12/05 01:55:40;;;;;;;25.75;12.80;;;;;;;5.31;75.86;100287.66;10292386;28;20077;-61
2022/12/05 02:00:42;;;;;;;28.77;12.02;;;;;;;5.35;76.00;100285.50;10292341;28;20061;-57
2022/12/05 02:05:47;;;;;;;24.77;11.48;;;;;;;5.40;76.13;100296.59;10291092;28;20410;-59
2022/12/05 02:10:52;;;;;;;24.05;11.75;;;;;;;5.42;76.23;100293.78;10291299;28;20710;-57
2022/12/05 02:16:10;;;;;;;29.40;12.88;;;;;;;5.44;75.53;100299.81;10285614;28;20146;-59
2022/12/05 02:21:44;;;;;;;27.48;11.77;;;;;;;5.46;75.84;100308.50;10268254;28;20150;-57
2022/12/05 02:27:07;;;;;;;28.95;12.13;;;;;;;5.48;76.29;100306.53;10284770;28;20046;-58
2022/12/05 02:32:15;;;;;;;25.73;12.02;;;;;;;5.49;75.96;100310.88;10286172;28;20069;-57
2022/12/05 02:37:29;;;;;;;30.27;14.38;;;;;;;5.44;76.30;100310.47;10287894;28;20498;-59
2022/12/05 02:42:40;;;;;;;23.08;11.82;;;;;;;5.49;76.20;100301.06;10291232;28;20061;-58
2022/12/05 02:47:51;;;;;;;26.73;12.05;;;;;;;5.52;75.91;100302.59;10291302;28;20126;-58
2022/12/05 02:52:57;;;;;;;26.60;13.23;;;;;;;5.52;76.05;100300.75;10279830;28;20090;-58
2022/12/05 02:58:03;;;;;;;29.55;14.23;;;;;;;5.54;76.08;100293.47;10266703;28;20795;-59
2022/12/05 03:03:12;;;;;;;31.77;13.57;;;;;;;5.56;76.43;100291.50;10286782;28;20086;-58
2022/12/05 03:08:20;;;;;;;27.67;12.95;;;;;;;5.57;76.25;100287.03;10290174;28;20071;-58
2022/12/05 03:13:28;;;;;;;29.00;13.35;;;;;;;5.60;76.92;100294.72;10287328;28;20082;-57
2022/12/05 03:18:36;;;;;;;31.67;13.38;;;;;;;5.61;76.29;100300.88;10288976;28;20581;-59
2022/12/05 03:23:45;;;;;;;30.73;13.80;;;;;;;5.61;76.40;100306.22;10293154;28;20142;-57
2022/12/05 03:29:06;;;;;;;29.45;13.80;;;;;;;5.60;76.35;100305.38;10292645;28;20050;-58
2022/12/05 03:34:16;;;;;;;33.47;13.23;;;;;;;5.62;76.46;100305.25;10289926;28;20074;-58
2022/12/05 03:39:22;;;;;;;31.45;13.88;;;;;;;5.59;76.29;100317.03;10291660;28;20455;-59
2022/12/05 03:44:42;;;;;;;35.67;14.98;;;;;;;5.59;76.49;100326.84;10287706;28;20589;-57
2022/12/05 03:49:49;;;;;;;40.17;15.07;;;;;;;5.60;76.82;100334.72;10285681;28;20142;-57
2022/12/05 03:54:54;;;;;;;33.65;14.20;;;;;;;5.61;76.28;100336.41;10286993;28;20051;-60
2022/12/05 04:00:01;;;;;;;32.78;14.77;;;;;;;5.61;77.17;100341.75;10290464;28;20071;-62
2022/12/05 04:05:13;;;;;;;35.28;14.70;;;;;;;5.62;76.52;100339.91;10289991;28;20133;-58
2022/12/05 04:10:21;;;;;;;35.15;15.35;;;;;;;5.62;76.78;100345.25;10286773;28;20162;-58
2022/12/05 04:17:02;;;;;;;39.92;16.73;;;;;;;5.57;77.21;100343.84;10287996;28;20132;-59
2022/12/05 04:26:28;;;;;;;38.38;15.35;;;;;;;5.38;77.14;100354.53;10288075;28;19973;-57
2022/12/05 04:31:36;;;;;;;41.05;15.63;;;;;;;5.43;76.52;100354.09;10290605;28;20137;-56
2022/12/05 04:36:45;;;;;;;41.28;16.30;;;;;;;5.40;76.93;100357.06;10288948;28;20047;-59
2022/12/05 04:41:54;;;;;;;40.05;16.50;;;;;;;5.36;77.36;100359.16;10288920;28;20174;-60
2022/12/05 04:46:59;;;;;;;42.20;16.48;;;;;;;5.46;76.91;100359.16;10282863;28;20130;-56
2022/12/05 04:52:06;;;;;;;36.78;15.70;;;;;;;5.50;76.73;100368.56;10282328;28;20502;-57
2022/12/05 04:57:26;;;;;;;41.20;16.00;;;;;;;5.38;77.14;100370.53;10282455;28;20135;-61
2022/12/05 05:02:33;;;;;;;42.20;17.00;;;;;;;5.44;76.54;100371.78;10284539;28;20165;-61
2022/12/05 05:07:43;;;;;;;39.45;16.20;;;;;;;5.52;77.19;100374.59;10281781;28;20737;-59
2022/12/05 05:12:45;;;;;;;40.45;17.67;;;;;;;5.53;76.78;100368.28;10282218;28;20090;-58
2022/12/05 05:17:46;;;;;;;39.70;16.02;;;;;;;5.57;77.13;100375.84;10282798;28;20508;-60
2022/12/05 05:22:49;;;;;;;36.35;16.05;;;;;;;5.59;76.87;100383.69;10282086;28;20530;-58
2022/12/05 05:27:53;;;;;;;44.90;16.85;;;;;;;5.64;77.69;100384.09;10279535;28;20134;-59
2022/12/05 05:32:54;;;;;;;38.55;15.57;;;;;;;5.58;77.28;100387.34;10280808;28;20389;-57
2022/12/05 05:37:56;;;;;;;39.92;15.20;;;;;;;5.55;77.95;100385.81;10282741;28;20142;-60
2022/12/05 05:42:57;;;;;;;46.10;15.48;;;;;;;5.51;77.50;100392.41;10282186;28;20150;-57
2022/12/05 05:47:59;;;;;;;43.88;14.15;;;;;;;5.50;77.27;100392.53;10276782;28;20043;-58
2022/12/05 05:53:00;;;;;;;44.85;14.18;;;;;;;5.41;77.91;100404.06;10278368;28;20142;-58
2022/12/05 05:58:02;;;;;;;43.20;15.32;;;;;;;5.33;78.18;100394.09;10282559;28;20134;-58
2022/12/05 06:03:03;;;;;;;52.85;16.73;;;;;;;5.36;78.38;100399.16;10277446;28;20145;-59
2022/12/05 06:08:05;;;;;;;54.83;17.25;;;;;;;5.33;77.63;100394.09;10280326;28;20057;-58
2022/12/05 06:13:06;;;;;;;52.75;17.10;;;;;;;5.33;78.42;100400.28;10275897;28;20620;-58
2022/12/05 06:18:07;;;;;;;39.88;14.23;;;;;;;5.32;77.98;100395.91;10277254;28;20070;-59
2022/12/05 06:23:09;;;;;;;46.03;15.88;;;;;;;5.29;77.89;100404.22;10274546;28;20473;-57
2022/12/05 06:28:11;;;;;;;45.75;15.75;;;;;;;5.24;78.51;100400.28;10278320;28;20145;-58
2022/12/05 06:33:12;;;;;;;51.50;16.23;;;;;;;5.06;78.67;100405.47;10287833;28;20477;-59
2022/12/05 06:38:13;;;;;;;49.78;16.45;;;;;;;5.11;78.70;100417.38;10287218;28;20502;-57
2022/12/05 06:43:15;;;;;;;41.85;16.35;;;;;;;5.13;78.95;100414.56;10289453;28;20493;-57
2022/12/05 06:48:16;;;;;;;42.17;15.20;;;;;;;5.21;78.28;100420.03;10290045;28;20544;-59
2022/12/05 06:53:19;;;;;;;46.58;14.93;;;;;;;5.18;78.93;100419.50;10287942;28;20085;-57
2022/12/05 06:58:20;;;;;;;39.08;13.98;;;;;;;5.22;78.45;100429.72;10287497;28;20083;-57
2022/12/05 07:03:22;;;;;;;40.58;14.32;;;;;;;5.29;78.63;100435.34;10288068;28;20122;-58
2022/12/05 07:08:23;;;;;;;44.38;14.27;;;;;;;5.44;78.31;100435.78;10314205;28;20038;-62
2022/12/05 07:13:25;;;;;;;44.08;13.77;;;;;;;5.53;77.50;100433.09;10338115;28;20043;-62
2022/12/05 07:18:26;;;;;;;45.63;13.82;;;;;;;5.48;78.27;100437.16;10334253;28;20035;-62
2022/12/05 07:23:28;;;;;;;46.63;14.52;;;;;;;5.56;78.19;100443.47;10339759;28;20054;-62
2022/12/05 07:28:29;;;;;;;43.97;13.95;;;;;;;5.60;77.37;100443.19;10334014;28;20057;-62
2022/12/05 07:33:31;;;;;;;43.33;14.65;;;;;;;5.61;77.52;100456.41;10333574;28;20050;-62
2022/12/05 07:38:32;;;;;;;43.97;13.25;;;;;;;5.69;77.90;100461.84;10332469;28;20085;-62
2022/12/05 07:43:34;;;;;;;43.25;14.52;;;;;;;5.71;78.13;100467.91;10333982;28;20108;-61
2022/12/05 07:48:36;;;;;;;43.13;12.98;;;;;;;5.81;77.37;100473.22;10334265;28;20081;-61
2022/12/05 07:53:38;;;;;;;40.25;13.98;;;;;;;5.80;77.33;100470.69;10330855;28;20042;-62
2022/12/05 07:58:39;;;;;;;36.35;14.55;;;;;;;5.74;78.67;100478.25;10333904;28;20031;-62
2022/12/05 08:03:41;;;;;;;44.80;14.68;;;;;;;5.82;77.88;100479.38;10335030;28;20050;-61
2022/12/05 08:08:43;;;;;;;40.85;14.65;;;;;;;5.90;77.75;100490.19;10332455;28;20049;-62
2022/12/05 08:13:45;;;;;;;36.83;14.27;;;;;;;5.84;78.26;100504.94;10330613;28;20031;-62
2022/12/05 08:18:46;;;;;;;49.58;16.52;;;;;;;5.88;78.60;100508.16;10864453;23;20050;-62
2022/12/05 08:23:48;;;;;;;36.75;13.60;;;;;;;5.97;77.58;100498.50;10400208;28;20030;-63
2022/12/05 08:28:51;;;;;;;36.40;15.27;;;;;;;6.03;78.11;100505.94;10398324;28;20038;-63
2022/12/05 08:33:55;;;;;;;36.22;13.88;;;;;;;6.03;77.90;100506.78;10395049;28;20042;-63
2022/12/05 08:39:03;;;;;;;33.43;13.73;;;;;;;6.09;78.07;100513.38;10400925;28;20030;-63
2022/12/05 08:44:05;;;;;;;38.45;14.52;;;;;;;6.10;77.39;100518.56;10399837;28;20034;-64
2022/12/05 08:49:07;;;;;;;39.67;14.90;;;;;;;6.10;77.62;100539.94;10391443;28;20058;-65
2022/12/05 08:54:09;;;;;;;38.10;15.60;;;;;;;6.24;77.56;100537.78;10340342;28;20081;-65
2022/12/05 08:59:11;;;;;;;32.55;13.65;;;;;;;6.37;78.32;100545.50;10341949;28;20086;-65
2022/12/05 09:04:12;;;;;;;34.67;14.35;;;;;;;6.39;77.18;100546.19;10345291;28;20142;-65
2022/12/05 09:09:13;;;;;;;34.05;16.27;;;;;;;6.27;77.91;100550.84;10343796;28;20145;-63
2022/12/05 09:14:15;;;;;;;36.28;14.45;;;;;;;6.27;78.05;100554.34;10340616;28;20050;-64
2022/12/05 09:19:24;;;;;;;36.78;14.75;;;;;;;6.17;78.26;100560.72;10343615;28;20050;-64
2022/12/05 09:24:26;;;;;;;36.55;15.02;;;;;;;6.21;77.94;100562.94;10344332;28;20076;-64
2022/12/05 09:29:30;;;;;;;35.92;15.20;;;;;;;6.07;77.85;100561.53;10338720;28;20137;-64
2022/12/05 09:34:32;;;;;;;33.25;15.43;;;;;;;6.11;78.59;100567.44;10339221;28;20153;-64
2022/12/05 09:39:34;;;;;;;30.80;13.80;;;;;;;6.06;78.79;100567.88;10344315;28;20046;-64
2022/12/05 09:44:54;;;;;;;32.05;12.73;;;;;;;6.01;78.23;100563.94;10325611;28;20124;-64
2022/12/05 09:50:01;;;;;;;30.52;13.77;;;;;;;6.15;78.02;100579.53;10340240;28;20046;-64
2022/12/05 09:55:10;;;;;;;30.35;13.35;;;;;;;6.21;77.88;100567.44;10336874;28;20066;-65
2022/12/05 10:00:12;;;;;;;33.10;14.50;;;;;;;6.30;77.49;100562.09;10342773;28;20166;-65
2022/12/05 10:05:37;;;;;;;41.17;16.40;;;;;;;6.23;78.07;100570.81;10343703;28;20133;-65
2022/12/05 10:11:00;;;;;;;31.85;14.18;;;;;;;6.27;77.48;100565.03;10346807;28;20132;-65
2022/12/05 10:16:09;;;;;;;30.42;12.00;;;;;;;6.19;78.88;100572.91;10332255;28;20073;-65
2022/12/05 10:21:18;;;;;;;29.45;13.73;;;;;;;6.10;78.29;100555.94;10320842;28;20054;-65
2022/12/05 10:26:21;;;;;;;35.28;14.27;;;;;;;6.09;78.18;100570.25;10304186;28;20050;-66
2022/12/05 10:31:28;;;;;;;33.28;14.20;;;;;;;6.15;78.87;100558.16;10307624;28;20133;-65
2022/12/05 10:36:30;;;;;;;31.70;14.10;;;;;;;6.10;78.65;100547.06;10304583;28;20232;-65
2022/12/05 10:41:32;;;;;;;33.33;14.45;;;;;;;6.11;78.81;100554.09;10307181;28;20062;-66
2022/12/05 10:46:34;;;;;;;35.85;14.55;;;;;;;6.17;78.57;100539.34;10307745;28;20073;-66
2022/12/05 10:51:37;;;;;;;31.73;14.30;;;;;;;6.31;78.40;100542.41;10307984;28;20051;-66
2022/12/05 10:56:48;;;;;;;31.45;14.30;;;;;;;6.50;77.98;100546.03;10296890;28;20051;-65
2022/12/05 11:01:55;;;;;;;29.73;14.00;;;;;;;6.66;78.04;100534.72;10308845;28;20086;-65
2022/12/05 11:07:03;;;;;;;28.70;12.85;;;;;;;6.66;78.40;100524.88;10312683;28;20073;-65
2022/12/05 11:12:08;;;;;;;29.27;13.73;;;;;;;6.65;77.93;100538.38;10309221;28;20485;-64
2022/12/05 11:17:22;;;;;;;30.83;14.55;;;;;;;6.71;77.53;100544.00;10311523;28;20092;-65
2022/12/05 11:22:32;;;;;;;29.95;12.82;;;;;;;6.61;78.28;100537.81;10340904;28;20144;-65
2022/12/05 11:27:34;;;;;;;32.63;13.35;;;;;;;6.64;78.54;100540.22;10343483;28;20137;-64
2022/12/05 11:32:35;;;;;;;28.20;12.35;;;;;;;6.59;78.05;100536.28;10344812;28;20117;-65
2022/12/05 11:37:59;;;;;;;26.50;13.05;;;;;;;6.74;77.57;100542.84;10343688;28;20145;-65
2022/12/05 11:43:07;;;;;;;29.10;13.43;;;;;;;6.88;77.32;100552.22;10350623;28;20133;-65
2022/12/05 11:48:32;;;;;;;28.40;13.32;;;;;;;6.91;77.56;100541.22;10348074;28;20140;-64
2022/12/05 11:54:05;;;;;;;26.15;11.77;;;;;;;6.86;77.27;100547.03;10324488;28;20137;-64
2022/12/05 11:59:30;;;;;;;34.58;13.50;;;;;;;6.82;77.80;100553.66;10348789;28;20076;-65
2022/12/05 12:04:53;;;;;;;30.60;14.00;;;;;;;6.78;77.47;100549.59;10348038;28;20082;-64
2022/12/05 12:10:26;;;;;;;27.63;13.13;;;;;;;6.74;77.52;100540.19;10345289;28;20073;-64
2022/12/05 12:15:36;;;;;;;30.02;12.38;;;;;;;6.61;77.06;100542.34;10344092;28;20050;-65
2022/12/05 12:20:51;;;;;;;27.02;13.10;;;;;;;6.65;77.29;100543.72;10337877;28;20148;-64
2022/12/05 12:26:14;;;;;;;32.53;14.43;;;;;;;6.73;77.30;100538.47;10340957;28;20060;-64
2022/12/05 12:31:53;;;;;;;28.52;12.38;;;;;;;6.72;77.69;100540.31;10345143;28;20086;-66
2022/12/05 12:37:06;;;;;;;28.38;12.48;;;;;;;6.70;78.45;100542.31;10348340;28;20038;-65
2022/12/05 12:42:17;;;;;;;25.95;13.10;;;;;;;6.77;78.10;100547.88;10349109;28;20573;-66
2022/12/05 12:47:38;;;;;;;30.67;12.40;;;;;;;6.82;78.27;100550.16;10340753;28;20104;-65
2022/12/05 12:53:12;;;;;;;27.98;12.55;;;;;;;6.74;78.03;100546.38;10346707;28;20140;-66
2022/12/05 12:58:39;;;;;;;24.33;10.63;;;;;;;6.55;77.54;100541.91;10343149;28;20046;-68
2022/12/05 13:04:01;;;;;;;27.33;11.50;;;;;;;6.69;77.67;100545.13;10340459;28;20105;-65
2022/12/05 13:09:34;;;;;;;22.90;11.00;;;;;;;6.64;77.71;100542.88;10340183;28;20141;-63
2022/12/05 13:14:38;;;;;;;25.50;11.93;;;;;;;6.61;77.91;100545.00;10338117;28;20082;-64
2022/12/05 13:19:45;;;;;;;20.55;9.80;;;;;;;6.64;77.30;100539.38;10338988;28;20085;-62
2022/12/05 13:24:49;;;;;;;22.50;10.77;;;;;;;6.61;77.28;100550.34;10341064;28;20133;-63
2022/12/05 13:29:54;;;;;;;24.05;11.57;;;;;;;6.73;77.23;100543.84;10336018;28;20054;-62
2022/12/05 13:34:59;;;;;;;26.67;11.32;;;;;;;6.90;77.48;100550.25;10342488;28;20049;-63
2022/12/05 13:45:22;;;;;;;26.33;11.32;;;;;;;6.83;76.89;100549.13;10334865;28;20591;-61
2022/12/05 13:50:32;;;;;;;23.27;10.10;;;;;;;6.86;77.58;100556.88;10340313;28;20085;-62
2022/12/05 13:55:37;;;;;;;21.92;9.48;;;;;;;6.94;76.95;100563.16;10339922;28;20085;-62
2022/12/05 14:00:39;;;;;;;22.70;9.88;;;;;;;6.97;77.40;100562.03;10339083;28;20078;-62
2022/12/05 14:05:45;;;;;;;23.95;10.05;;;;;;;6.86;77.02;100563.06;10343126;28;20051;-63
2022/12/05 14:10:50;;;;;;;22.47;9.03;;;;;;;6.76;77.75;100564.91;10341914;28;20108;-62
2022/12/05 14:15:53;;;;;;;20.17;10.07;;;;;;;6.84;77.06;100561.53;10337686;28;20070;-62
2022/12/05 14:21:22;;;;;;;27.33;10.52;;;;;;;7.00;77.32;100563.56;10339391;28;20076;-63
2022/12/05 14:26:58;;;;;;;26.95;10.52;;;;;;;7.09;76.75;100563.53;10317859;28;20085;-64
2022/12/05 14:32:12;;;;;;;27.00;10.63;;;;;;;7.00;77.02;100566.25;10339552;28;20137;-63
2022/12/05 14:37:13;;;;;;;24.60;10.95;;;;;;;6.98;77.35;100576.22;10341009;28;20051;-64
2022/12/05 14:42:23;;;;;;;23.95;10.15;;;;;;;6.88;78.16;100579.78;10341066;28;20580;-63
2022/12/05 14:47:28;;;;;;;22.63;9.98;;;;;;;6.78;77.57;100576.31;10340881;28;20056;-65
2022/12/05 14:52:30;;;;;;;28.05;10.82;;;;;;;6.72;77.60;100577.72;10343950;28;20085;-64
2022/12/05 14:57:41;;;;;;;24.98;10.43;;;;;;;6.69;77.84;100578.00;10345460;28;20129;-63
2022/12/05 15:02:45;;;;;;;25.15;11.07;;;;;;;6.66;77.93;100567.63;10343534;28;20053;-62
2022/12/05 15:07:48;;;;;;;29.60;11.32;;;;;;;6.66;78.05;100577.47;10326330;28;20136;-63
2022/12/05 15:12:55;;;;;;;26.83;11.82;;;;;;;6.64;78.38;100572.28;10342320;28;20056;-62
2022/12/05 15:18:04;;;;;;;23.25;10.15;;;;;;;6.63;77.58;100572.41;10332957;28;20082;-63
2022/12/05 15:23:43;;;;;;;30.60;11.80;;;;;;;6.70;78.18;100577.03;10344981;28;20133;-64
2022/12/05 15:29:19;;;;;;;30.92;11.05;;;;;;;6.80;78.05;100570.81;10304041;28;20070;-65
2022/12/05 15:34:51;;;;;;;29.37;10.40;;;;;;;6.80;77.22;100574.31;10282790;28;20529;-66
2022/12/05 15:40:13;;;;;;;30.73;11.48;;;;;;;6.75;78.27;100574.78;10352450;28;20133;-66
2022/12/05 15:45:22;;;;;;;31.45;11.57;;;;;;;6.81;77.68;100584.00;10347717;28;20058;-65
2022/12/05 15:50:32;;;;;;;29.92;11.55;;;;;;;6.87;78.40;100579.91;10343342;28;20137;-66
2022/12/05 15:55:41;;;;;;;25.42;11.60;;;;;;;6.70;78.75;100579.69;10343479;28;20053;-66
2022/12/05 16:00:45;;;;;;;28.80;11.35;;;;;;;6.88;77.94;100582.44;10343328;28;20126;-65
2022/12/05 16:06:00;;;;;;;28.00;12.27;;;;;;;6.99;77.17;100588.59;10346044;28;20085;-66
2022/12/05 16:11:09;;;;;;;23.52;10.40;;;;;;;6.96;77.99;100589.75;10348572;28;20544;-65
2022/12/05 16:16:18;;;;;;;25.33;10.88;;;;;;;6.96;77.49;100587.06;10345906;28;20070;-66
2022/12/05 16:21:34;;;;;;;28.83;11.90;;;;;;;6.92;77.47;100594.53;10349824;28;20043;-66
2022/12/05 16:26:39;;;;;;;28.17;12.70;;;;;;;7.07;77.73;100597.56;10347604;28;20064;-66
2022/12/05 16:31:42;;;;;;;27.60;11.18;;;;;;;6.91;77.75;100592.88;10363711;28;20057;-68
2022/12/05 16:36:49;;;;;;;28.92;12.25;;;;;;;7.02;77.31;100589.16;10360559;28;20102;-68
2022/12/05 16:41:51;;;;;;;26.40;12.43;;;;;;;7.01;77.24;100594.63;10354122;28;20073;-68
2022/12/05 16:46:56;;;;;;;26.60;11.43;;;;;;;7.10;77.98;100596.44;10357921;28;20042;-68
2022/12/05 16:52:08;;;;;;;25.52;11.77;;;;;;;7.07;76.97;100596.72;10356111;28;20049;-66
2022/12/05 16:57:12;;;;;;;34.83;13.57;;;;;;;7.00;77.77;100590.28;10356654;28;20050;-68
2022/12/05 17:02:17;;;;;;;28.30;11.57;;;;;;;7.07;76.97;100596.72;10344979;28;20058;-68
2022/12/05 17:07:19;;;;;;;29.27;11.88;;;;;;;7.10;76.97;100596.44;10341147;28;20061;-69
2022/12/05 17:12:23;;;;;;;26.23;11.93;;;;;;;7.15;76.89;100602.19;10348297;28;20100;-69
2022/12/05 17:17:24;;;;;;;25.70;11.13;;;;;;;7.28;76.68;100610.69;10347010;28;20081;-66
2022/12/05 17:22:27;;;;;;;28.98;11.55;;;;;;;7.31;76.62;100604.22;10345304;28;20133;-66
2022/12/05 17:27:28;;;;;;;23.55;11.02;;;;;;;7.36;76.72;100601.94;10347661;28;20672;-67
2022/12/05 17:32:29;;;;;;;23.77;11.45;;;;;;;7.36;76.81;100607.28;10335390;28;20105;-68
2022/12/05 17:37:31;;;;;;;22.73;10.65;;;;;;;7.45;77.02;100611.75;10337708;28;20076;-69
2022/12/05 17:42:32;;;;;;;27.42;11.23;;;;;;;7.42;76.61;100605.84;10346422;28;20081;-68
2022/12/05 17:47:34;;;;;;;24.35;11.23;;;;;;;7.44;76.96;100606.53;10348990;28;20046;-66
2022/12/05 17:52:35;;;;;;;26.60;11.35;;;;;;;7.49;76.70;100617.66;10341989;28;20070;-68
2022/12/05 17:57:37;;;;;;;31.50;11.38;;;;;;;7.55;76.41;100617.03;10355297;28;20152;-68
2022/12/05 18:02:38;;;;;;;29.00;12.00;;;;;;;7.60;76.12;100614.75;10346622;28;20141;-66
2022/12/05 18:07:41;;;;;;;27.63;11.32;;;;;;;7.57;76.62;100609.72;10343871;28;20048;-68
2022/12/05 18:12:43;;;;;;;27.67;11.77;;;;;;;7.60;76.86;100614.75;10341801;28;20061;-68
2022/12/05 18:17:44;;;;;;;26.65;11.65;;;;;;;7.61;76.31;100620.94;10340153;28;20065;-68
2022/12/05 18:22:47;;;;;;;33.00;15.23;;;;;;;7.62;76.20;100626.16;10340207;28;20077;-67
2022/12/05 18:27:49;;;;;;;25.83;11.35;;;;;;;7.50;76.74;100619.31;10353577;28;20069;-67
2022/12/05 18:32:50;;;;;;;23.85;11.23;;;;;;;7.39;77.50;100616.84;10335658;28;20100;-68
2022/12/05 18:37:52;;;;;;;24.45;10.98;;;;;;;7.37;77.18;100617.00;10348852;28;20130;-68
2022/12/05 18:42:53;;;;;;;26.48;11.85;;;;;;;7.54;76.61;100620.69;10329548;28;20050;-68
2022/12/05 18:47:54;;;;;;;27.15;11.25;;;;;;;7.46;76.63;100615.25;10347607;28;20608;-68
2022/12/05 18:53:16;;;;;;;26.60;10.00;;;;;;;7.42;76.80;100619.22;10352056;28;20050;-70
2022/12/05 18:58:17;;;;;;;28.02;12.60;;;;;;;7.46;76.90;100616.09;10346933;28;20141;-69
2022/12/05 19:03:19;;;;;;;29.27;12.80;;;;;;;7.51;77.10;100619.16;10347452;28;20057;-69
2022/12/05 19:08:21;;;;;;;31.80;12.60;;;;;;;7.52;77.12;100614.66;10345289;28;20069;-68
2022/12/05 19:13:22;;;;;;;28.05;12.63;;;;;;;7.55;77.17;100617.03;10350454;28;20045;-69
2022/12/05 19:18:24;;;;;;;29.95;12.68;;;;;;;7.50;77.09;100617.50;10334955;28;20050;-68
2022/12/05 19:23:25;;;;;;;33.83;13.25;;;;;;;7.50;77.10;100620.19;10347572;28;20057;-67
2022/12/05 19:28:27;;;;;;;30.23;12.63;;;;;;;7.50;76.67;100613.97;10346937;28;20058;-67
2022/12/05 19:33:35;;;;;;;25.23;12.35;;;;;;;7.46;77.50;100620.59;10355089;28;20430;-66
2022/12/05 19:38:39;;;;;;;25.83;11.65;;;;;;;7.55;76.28;100619.72;10352879;28;20137;-67
2022/12/05 19:43:42;;;;;;;25.42;12.07;;;;;;;7.53;76.99;100622.53;10359006;28;20050;-67
2022/12/05 19:48:44;;;;;;;17.50;9.75;;;;;;;7.47;77.42;100624.97;10380290;28;20053;-67
2022/12/05 19:53:47;;;;;;;14.48;7.68;;;;;;;7.50;76.73;100619.31;10385349;28;20050;-67
2022/12/05 19:58:50;;;;;;;15.05;7.00;;;;;;;7.44;76.57;100622.59;10392478;28;20046;-66
2022/12/05 20:03:59;;;;;;;9.85;6.35;;;;;;;7.45;76.64;100626.97;10376336;28;20481;-66
2022/12/05 20:09:01;;;;;;;13.20;7.15;;;;;;;7.39;77.01;100628.38;10376170;28;20093;-67
2022/12/05 20:14:02;;;;;;;13.98;6.53;;;;;;;7.35;77.05;100633.19;10378251;28;20049;-65
2022/12/05 20:19:04;;;;;;;13.52;6.25;;;;;;;7.43;76.85;100634.28;10392761;28;20046;-66
2022/12/05 20:24:06;;;;;;;12.77;6.32;;;;;;;7.45;76.46;100629.63;10370805;28;20489;-66
2022/12/05 20:29:08;;;;;;;8.80;5.55;;;;;;;7.45;76.57;100624.28;10373525;28;20105;-66
2022/12/05 20:34:12;;;;;;;11.75;5.72;;;;;;;7.41;75.64;100633.59;10383436;28;20063;-68
2022/12/05 20:39:16;;;;;;;10.15;6.13;;;;;;;7.36;76.15;100631.34;10368048;28;20070;-66
2022/12/05 20:44:17;;;;;;;10.27;5.60;;;;;;;7.40;76.02;100629.22;10367511;28;20054;-67
2022/12/05 20:49:18;;;;;;;9.80;6.07;;;;;;;7.40;76.06;100629.22;10344644;28;20042;-68
2022/12/05 20:54:20;;;;;;;11.00;5.55;;;;;;;7.37;75.73;100634.88;10340307;28;20141;-68
2022/12/05 20:59:21;;;;;;;10.95;5.57;;;;;;;7.36;76.27;100631.34;10342368;28;20054;-67
2022/12/05 21:04:23;;;;;;;11.98;5.97;;;;;;;7.38;75.70;100628.53;10339584;28;20140;-67
2022/12/05 21:09:28;;;;;;;11.25;5.13;;;;;;;7.37;75.25;100618.84;10345166;28;20037;-66
2022/12/05 21:14:30;;;;;;;11.38;5.47;;;;;;;7.37;76.03;100629.53;10345645;28;20060;-66
2022/12/05 21:19:32;;;;;;;11.48;5.97;;;;;;;7.42;75.96;100627.25;10353142;28;20041;-66
2022/12/05 21:24:33;;;;;;;10.07;5.47;;;;;;;7.38;75.26;100628.53;10331265;28;20136;-68
2022/12/05 21:29:34;;;;;;;9.02;5.05;;;;;;;7.39;75.59;100631.06;10342171;28;20120;-65
2022/12/05 21:34:36;;;;;;;11.30;6.18;;;;;;;7.43;75.53;100626.25;10334780;28;20420;-66
2022/12/05 21:39:37;;;;;;;8.70;5.50;;;;;;;7.39;74.83;100628.38;10331766;28;20042;-66
2022/12/05 21:44:39;;;;;;;7.78;5.15;;;;;;;7.41;75.73;100629.09;10346060;28;20053;-67
2022/12/05 21:49:40;;;;;;;12.20;6.10;;;;;;;7.42;75.70;100627.25;10343125;28;20046;-66
2022/12/05 21:54:42;;;;;;;16.15;6.30;;;;;;;7.37;75.81;100634.88;10342287;28;20607;-67
2022/12/05 21:59:43;;;;;;;12.63;6.47;;;;;;;7.39;75.71;100632.91;10341296;28;20042;-67
2022/12/05 22:04:45;;;;;;;12.82;6.63;;;;;;;7.37;75.31;100630.38;10341509;28;20133;-67
2022/12/05 22:09:46;;;;;;;17.20;6.45;;;;;;;7.39;75.07;100628.38;10342885;28;20042;-67
2022/12/05 22:14:48;;;;;;;13.75;6.63;;;;;;;7.37;75.88;100629.53;10347628;28;20132;-68
2022/12/05 22:19:49;;;;;;;14.75;6.85;;;;;;;7.32;75.37;100628.13;10343300;28;20134;-66
2022/12/05 22:24:50;;;;;;;12.35;6.63;;;;;;;7.35;75.42;100627.00;10340032;28;20138;-65
2022/12/05 22:29:52;;;;;;;12.65;6.88;;;;;;;7.37;75.80;100617.00;10338344;28;20121;-66
2022/12/05 22:34:53;;;;;;;9.90;6.28;;;;;;;7.43;75.08;100624.44;10343208;28;20463;-65
2022/12/05 22:40:00;;;;;;;13.55;6.93;;;;;;;7.52;74.71;100614.66;10347628;28;20088;-64
2022/12/05 22:45:03;;;;;;;11.95;6.18;;;;;;;7.61;75.01;100612.94;10349151;28;20092;-64
2022/12/05 22:50:05;;;;;;;11.20;6.28;;;;;;;7.54;74.74;100618.00;10340732;28;20073;-64
2022/12/05 22:55:07;;;;;;;11.45;6.40;;;;;;;7.52;74.59;100615.50;10344875;28;20137;-65
2022/12/05 23:00:09;;;;;;;10.02;5.18;;;;;;;7.54;75.08;100610.00;10348528;28;20090;-63
2022/12/05 23:05:10;;;;;;;10.95;5.45;;;;;;;7.59;75.00;100610.41;10336812;28;20130;-65
2022/12/05 23:10:11;;;;;;;13.05;6.35;;;;;;;7.61;74.81;100602.22;10337744;28;20133;-64
2022/12/05 23:15:13;;;;;;;8.93;5.55;;;;;;;7.63;74.29;100601.06;10339697;28;20088;-65
2022/12/05 23:20:15;;;;;;;10.65;5.90;;;;;;;7.58;74.75;100606.03;10347383;28;20463;-65
2022/12/05 23:25:16;;;;;;;11.35;5.80;;;;;;;7.58;74.55;100600.66;10351106;28;20157;-65
2022/12/05 23:30:17;;;;;;;11.18;6.85;;;;;;;7.53;75.29;100603.81;10348060;28;20177;-65